Time;durP1;ratioP1;P1;durP2;ratioP2;P2;SDS_P1;SDS_P2;PMS_P1;PMS_P2;Temp;Humidity;BMP_temperature;BMP_pressure;BME280_temperature;BME280_humidity;BME280_pressure;Samples;Min_cycle;Max_cycle;Signal;HPM_P1;HPM_P2
2022/09/08 02:32:56;;;;;;;;;;;;;;;14.26;100.00;95479.22;1064349;23;19916;-69
2022/09/08 02:33:27;;;;;;;;;;;;;;;14.26;100.00;95473.94;1049314;28;19921;-69
2022/09/08 02:33:57;;;;;;;;;;;;;;;14.26;100.00;95477.34;1050725;28;19930;-69
2022/09/08 02:34:28;;;;;;;;;;;;;;;14.24;100.00;95468.94;1051626;28;19922;-69
2022/09/08 02:34:59;;;;;;;;;;;;;;;14.25;100.00;95473.16;1047335;28;19908;-69
2022/09/08 02:35:30;;;;;;;;;;;;;;;14.24;100.00;95466.28;1048874;28;20396;-69
2022/09/08 02:36:01;;;;;;;;;;;;;;;14.24;100.00;95466.28;1046627;28;19947;-69
2022/09/08 02:36:31;;;;;;;;;;;;;;;14.23;100.00;95464.75;1052206;27;19908;-70
2022/09/08 02:37:04;;;;;;;;;;;;;;;14.24;100.00;95466.28;1054086;28;19914;-69
2022/09/08 02:37:35;;;;;;;;;;;;;;;14.26;100.00;95466.81;1047676;28;19912;-69
2022/09/08 02:38:05;;;;;;;;;;;;;;;14.27;100.00;95471.00;1045846;28;19912;-69
2022/09/08 02:38:36;;;;;;;;;;;;;;;14.28;100.00;95469.91;1048277;28;19919;-69
2022/09/08 02:39:06;;;;;;;;;;;;;;;14.26;100.00;95469.44;1045707;28;19908;-69
2022/09/08 02:39:36;;;;;;;;;;;;;;;14.26;100.00;95472.06;1043725;28;20168;-68
2022/09/08 02:40:07;;;;;;;;;;;;;;;14.26;100.00;95473.94;1043615;28;20397;-69
2022/09/08 02:40:38;;;;;;;;;;;;;;;14.26;100.00;95469.44;1039576;28;19917;-69
2022/09/08 02:41:10;;;;;;;;;;;;;;;14.28;100.00;95467.28;1043723;28;20386;-66
2022/09/08 02:41:41;;;;;;;;;;;;;;;14.27;100.00;95468.34;1048235;28;19921;-68
2022/09/08 02:42:11;;;;;;;;;;;;;;;14.28;100.00;95464.63;1048102;28;20444;-69
2022/09/08 02:42:44;;;;;;;;;;;;;;;14.25;100.00;95457.31;1047726;28;19912;-69
2022/09/08 02:43:14;;;;;;;;;;;;;;;14.27;100.00;95460.44;1047656;28;20372;-69
2022/09/08 02:43:45;;;;;;;;;;;;;;;14.27;100.00;95451.75;1048125;28;19954;-69
2022/09/08 02:44:15;;;;;;;;;;;;;;;14.26;100.00;95453.59;1048043;28;19912;-69
2022/09/08 02:44:45;;;;;;;;;;;;;;;14.27;100.00;95454.38;1051968;28;19914;-69
2022/09/08 02:45:16;;;;;;;;;;;;;;;14.28;100.00;95453.28;1051372;28;19958;-69
2022/09/08 02:45:47;;;;;;;;;;;;;;;14.29;100.00;95450.38;1047562;28;19916;-68
2022/09/08 02:46:17;;;;;;;;;;;;;;;14.30;100.00;95448.53;1051894;28;19916;-69
2022/09/08 02:46:47;;;;;;;;;;;;;;;14.28;100.00;95443.50;1051985;28;19915;-69
2022/09/08 02:47:18;;;;;;;;;;;;;;;14.26;100.00;95448.31;1047677;28;19995;-68
2022/09/08 02:47:48;;;;;;;;;;;;;;;14.27;100.00;95436.69;1047583;28;19951;-69
2022/09/08 02:48:18;;;;;;;;;;;;;;;14.28;100.00;95438.25;1047761;28;19908;-68
2022/09/08 02:48:49;;;;;;;;;;;;;;;14.26;100.00;95435.13;1047793;28;19987;-68
2022/09/08 02:49:19;;;;;;;;;;;;;;;14.27;100.00;95428.00;1051778;28;19945;-67
2022/09/08 02:49:49;;;;;;;;;;;;;;;14.27;100.00;95428.00;1047609;28;19916;-68
2022/09/08 02:50:20;;;;;;;;;;;;;;;14.27;100.00;95428.75;1047705;28;20473;-69
2022/09/08 02:50:50;;;;;;;;;;;;;;;14.28;100.00;95422.41;1039364;28;19917;-69
2022/09/08 02:51:21;;;;;;;;;;;;;;;14.28;100.00;95416.34;1039653;28;19917;-69
2022/09/08 02:51:51;;;;;;;;;;;;;;;14.30;100.00;95419.50;1039438;28;19925;-69
2022/09/08 02:52:22;;;;;;;;;;;;;;;14.29;100.00;95417.94;1043954;28;19924;-69
2022/09/08 02:52:52;;;;;;;;;;;;;;;14.28;100.00;95414.47;1047593;28;19916;-69
2022/09/08 02:53:22;;;;;;;;;;;;;;;14.28;100.00;95409.22;1047773;28;19916;-68
2022/09/08 02:53:54;;;;;;;;;;;;;;;14.26;100.00;95419.28;1051882;28;19908;-69
2022/09/08 02:54:24;;;;;;;;;;;;;;;14.27;100.00;95410.28;1051784;28;19912;-69
2022/09/08 02:54:54;;;;;;;;;;;;;;;14.26;100.00;95411.38;1047757;28;19916;-68
2022/09/08 02:55:25;;;;;;;;;;;;;;;14.25;100.00;95415.09;1042967;28;20612;-68
2022/09/08 02:55:55;;;;;;;;;;;;;;;14.27;100.00;95407.66;1043421;28;20343;-68
2022/09/08 02:56:25;;;;;;;;;;;;;;;14.27;100.00;95406.88;1043635;28;19996;-68
2022/09/08 02:56:56;;;;;;;;;;;;;;;14.27;100.00;95404.22;1043530;28;20367;-68
2022/09/08 02:57:26;;;;;;;;;;;;;;;14.27;100.00;95402.38;1047732;28;20296;-68
2022/09/08 02:57:56;;;;;;;;;;;;;;;14.27;100.00;95402.38;1050937;28;19908;-68
2022/09/08 02:58:27;;;;;;;;;;;;;;;14.28;100.00;95401.28;1051933;28;19916;-68
2022/09/08 02:58:57;;;;;;;;;;;;;;;14.28;100.00;95401.28;1056537;28;19916;-68
2022/09/08 02:59:27;;;;;;;;;;;;;;;14.28;100.00;95398.66;1051868;28;19919;-68
2022/09/08 02:59:58;;;;;;;;;;;;;;;14.29;100.00;95400.22;1051728;28;19912;-68
2022/09/08 03:00:32;;;;;;;;;;;;;;;14.29;100.00;95405.50;1050252;28;20394;-68
2022/09/08 03:01:03;;;;;;;;;;;;;;;14.29;100.00;95394.19;1047445;28;19983;-69
2022/09/08 03:01:33;;;;;;;;;;;;;;;14.25;100.00;95394.00;1039386;28;20091;-68
2022/09/08 03:02:03;;;;;;;;;;;;;;;14.27;100.00;95391.81;1027378;28;20390;-68
2022/09/08 03:02:34;;;;;;;;;;;;;;;14.27;100.00;95391.03;1031254;28;20507;-69
2022/09/08 03:03:04;;;;;;;;;;;;;;;14.28;100.00;95396.00;1038810;28;19913;-68
2022/09/08 03:03:34;;;;;;;;;;;;;;;14.29;100.00;95394.19;1042912;28;19970;-68
2022/09/08 03:04:05;;;;;;;;;;;;;;;14.29;100.00;95389.69;1056203;28;19919;-68
2022/09/08 03:04:36;;;;;;;;;;;;;;;14.30;100.00;95390.47;1056121;28;19911;-68
2022/09/08 03:05:06;;;;;;;;;;;;;;;14.29;100.00;95388.91;1047021;28;19931;-68
2022/09/08 03:05:37;;;;;;;;;;;;;;;14.29;100.00;95389.69;1047584;28;19979;-68
2022/09/08 03:06:07;;;;;;;;;;;;;;;14.31;100.00;95390.16;1047907;28;20253;-69
2022/09/08 03:06:38;;;;;;;;;;;;;;;14.29;100.00;95394.94;1043611;28;20003;-69
2022/09/08 03:07:08;;;;;;;;;;;;;;;14.31;100.00;95387.50;1047907;28;19909;-69
2022/09/08 03:07:38;;;;;;;;;;;;;;;14.33;100.00;95389.88;1047977;28;19963;-66
2022/09/08 03:08:09;;;;;;;;;;;;;;;14.34;100.00;95394.06;1047636;28;19959;-68
2022/09/08 03:08:39;;;;;;;;;;;;;;;14.34;100.00;95397.47;1043237;28;20058;-68
2022/09/08 03:09:10;;;;;;;;;;;;;;;14.29;100.00;95394.94;1043656;28;19913;-69
2022/09/08 03:09:40;;;;;;;;;;;;;;;14.28;100.00;95409.22;1039401;28;19952;-68
2022/09/08 03:10:11;;;;;;;;;;;;;;;14.29;100.00;95399.47;1043807;28;20379;-68
2022/09/08 03:10:41;;;;;;;;;;;;;;;14.27;100.00;95402.38;1044261;28;19965;-68
2022/09/08 03:11:11;;;;;;;;;;;;;;;14.28;100.00;95390.72;1040451;28;19988;-68
2022/09/08 03:11:42;;;;;;;;;;;;;;;14.27;100.00;95391.81;1040337;28;19909;-68
2022/09/08 03:12:12;;;;;;;;;;;;;;;14.28;100.00;95390.72;1040381;28;19913;-69
2022/09/08 03:12:43;;;;;;;;;;;;;;;14.29;100.00;95386.25;1044406;28;20365;-69
2022/09/08 03:13:13;;;;;;;;;;;;;;;14.25;100.00;95383.44;1051519;28;19943;-68
2022/09/08 03:13:43;;;;;;;;;;;;;;;14.26;100.00;95381.56;1057079;28;19968;-68
2022/09/08 03:14:14;;;;;;;;;;;;;;;14.26;100.00;95374.44;1057256;28;20563;-69
2022/09/08 03:14:44;;;;;;;;;;;;;;;14.26;100.00;95374.44;1052578;28;19951;-68
2022/09/08 03:15:15;;;;;;;;;;;;;;;14.26;100.00;95361.22;1051899;28;19981;-68
2022/09/08 03:15:45;;;;;;;;;;;;;;;14.27;100.00;95365.44;1052672;28;19998;-68
2022/09/08 03:16:15;;;;;;;;;;;;;;;14.23;100.00;95361.03;1052618;28;20043;-68
2022/09/08 03:16:46;;;;;;;;;;;;;;;14.25;100.00;95362.31;1048081;28;19908;-68
2022/09/08 03:17:16;;;;;;;;;;;;;;;14.25;100.00;95357.03;1044314;28;19909;-68
2022/09/08 03:17:47;;;;;;;;;;;;;;;14.25;100.00;95361.50;1044481;28;20386;-67
2022/09/08 03:18:17;;;;;;;;;;;;;;;14.25;100.00;95357.03;1044453;28;19972;-68
2022/09/08 03:18:48;;;;;;;;;;;;;;;14.27;100.00;95354.09;1048258;28;19954;-68
2022/09/08 03:19:18;;;;;;;;;;;;;;;14.27;100.00;95360.16;1044362;28;19907;-69
2022/09/08 03:19:50;;;;;;;;;;;;;;;14.28;100.00;95356.41;1040433;28;19905;-67
2022/09/08 03:20:20;;;;;;;;;;;;;;;14.26;100.00;95358.59;1045330;28;20460;-69
2022/09/08 03:21:20;;;;;;;;;;;;;;;14.25;100.00;95362.31;1044756;28;19909;-69
2022/09/08 03:21:50;;;;;;;;;;;;;;;14.27;100.00;95360.16;1035586;28;19963;-68
2022/09/08 03:22:21;;;;;;;;;;;;;;;14.25;100.00;95361.50;1044295;28;19905;-69
2022/09/08 03:22:51;;;;;;;;;;;;;;;14.23;100.00;95369.75;1048266;28;19950;-69
2022/09/08 03:23:22;;;;;;;;;;;;;;;14.26;100.00;95374.44;1044390;28;19908;-69
2022/09/08 03:23:54;;;;;;;;;;;;;;;14.23;100.00;95377.66;1048340;28;19920;-68
2022/09/08 03:24:24;;;;;;;;;;;;;;;14.20;100.00;95375.59;1048421;28;19911;-69
2022/09/08 03:24:54;;;;;;;;;;;;;;;14.20;100.00;95380.88;1048534;28;19912;-68
2022/09/08 03:25:25;;;;;;;;;;;;;;;14.21;100.00;95371.88;1051839;28;19908;-69
2022/09/08 03:25:55;;;;;;;;;;;;;;;14.20;100.00;95370.31;1044308;28;19947;-68
2022/09/08 03:26:25;;;;;;;;;;;;;;;14.21;100.00;95377.16;1040303;28;20076;-68
2022/09/08 03:27:00;;;;;;;;;;;;;;;14.22;100.00;95373.47;1044344;28;20019;-69
2022/09/08 03:27:30;;;;;;;;;;;;;;;14.21;100.00;95371.09;1040719;28;19905;-68
2022/09/08 03:28:01;;;;;;;;;;;;;;;14.19;100.00;95373.28;1045059;28;19908;-68
2022/09/08 03:28:31;;;;;;;;;;;;;;;14.21;100.00;95379.78;1048475;28;19915;-68
2022/09/08 03:29:01;;;;;;;;;;;;;;;14.19;100.00;95376.69;1048663;28;19916;-68
2022/09/08 03:29:32;;;;;;;;;;;;;;;14.20;100.00;95370.31;1059572;27;19911;-68
2022/09/08 03:30:05;;;;;;;;;;;;;;;14.22;100.00;95373.47;1061133;27;19911;-70
2022/09/08 03:30:36;;;;;;;;;;;;;;;14.24;100.00;95378.44;1052232;28;20299;-69
2022/09/08 03:31:07;;;;;;;;;;;;;;;14.24;100.00;95375.78;1052568;28;19907;-69
2022/09/08 03:31:38;;;;;;;;;;;;;;;14.24;100.00;95376.56;1048380;28;20399;-69
2022/09/08 03:32:08;;;;;;;;;;;;;;;14.24;100.00;95378.44;1048676;28;19908;-70
2022/09/08 03:32:39;;;;;;;;;;;;;;;14.20;100.00;95375.59;1052360;28;19965;-68
2022/09/08 03:33:09;;;;;;;;;;;;;;;14.20;100.00;95370.31;1044206;28;19925;-67
2022/09/08 03:33:40;;;;;;;;;;;;;;;14.19;100.00;95368.78;1044248;28;20666;-67
2022/09/08 03:34:10;;;;;;;;;;;;;;;14.20;100.00;95374.81;1043216;28;20327;-67
2022/09/08 03:34:40;;;;;;;;;;;;;;;14.21;100.00;95376.38;1037221;28;19916;-68
2022/09/08 03:35:11;;;;;;;;;;;;;;;14.21;100.00;95371.88;1041693;28;20308;-67
2022/09/08 03:35:41;;;;;;;;;;;;;;;14.22;100.00;95373.47;1041440;28;19928;-68
2022/09/08 03:36:12;;;;;;;;;;;;;;;14.20;100.00;95378.25;1040030;28;20389;-67
2022/09/08 03:36:42;;;;;;;;;;;;;;;14.22;100.00;95372.66;1043949;28;20008;-68
2022/09/08 03:37:13;;;;;;;;;;;;;;;14.23;100.00;95363.69;1044502;28;19920;-67
2022/09/08 03:37:43;;;;;;;;;;;;;;;14.24;100.00;95371.28;1048301;28;20312;-67
2022/09/08 03:38:14;;;;;;;;;;;;;;;14.23;100.00;95380.28;1048074;28;19994;-67
2022/09/08 03:38:45;;;;;;;;;;;;;;;14.25;100.00;95382.63;1044037;28;20373;-68
2022/09/08 03:39:15;;;;;;;;;;;;;;;14.24;100.00;95384.47;1043793;28;19923;-68
2022/09/08 03:39:46;;;;;;;;;;;;;;;14.25;100.00;95383.44;1043831;28;20405;-67
2022/09/08 03:40:16;;;;;;;;;;;;;;;14.25;100.00;95388.72;1040174;28;20336;-67
2022/09/08 03:40:47;;;;;;;;;;;;;;;14.24;100.00;95397.69;1043839;28;19912;-67
2022/09/08 03:41:17;;;;;;;;;;;;;;;14.21;100.00;95395.63;1044078;28;19970;-68
2022/09/08 03:41:48;;;;;;;;;;;;;;;14.20;100.00;95395.94;1048070;28;19916;-68
2022/09/08 03:42:18;;;;;;;;;;;;;;;14.21;100.00;95392.22;1052205;28;20373;-67
2022/09/08 03:42:48;;;;;;;;;;;;;;;14.22;100.00;95388.50;1056553;28;19981;-68
2022/09/08 03:43:19;;;;;;;;;;;;;;;14.22;100.00;95389.28;1053205;28;20010;-68
2022/09/08 03:43:50;;;;;;;;;;;;;;;14.23;100.00;95385.56;1052147;28;20364;-68
2022/09/08 03:44:20;;;;;;;;;;;;;;;14.23;100.00;95382.94;1048049;28;19923;-69
2022/09/08 03:44:51;;;;;;;;;;;;;;;14.23;100.00;95382.94;1048269;28;19920;-68
2022/09/08 03:45:21;;;;;;;;;;;;;;;14.22;100.00;95384.00;1050836;28;19911;-66
2022/09/08 03:45:51;;;;;;;;;;;;;;;14.22;100.00;95377.94;1051959;28;20355;-67
2022/09/08 03:46:22;;;;;;;;;;;;;;;14.22;100.00;95378.75;1043851;28;19912;-68
2022/09/08 03:46:52;;;;;;;;;;;;;;;14.22;100.00;95384.00;1035859;28;19959;-69
2022/09/08 03:47:23;;;;;;;;;;;;;;;14.23;100.00;95384.78;1031634;28;19925;-68
2022/09/08 03:47:53;;;;;;;;;;;;;;;14.24;100.00;95392.41;1035686;28;20413;-68
2022/09/08 03:48:23;;;;;;;;;;;;;;;14.23;100.00;95390.84;1040065;28;19924;-68
2022/09/08 03:48:54;;;;;;;;;;;;;;;14.24;100.00;95396.91;1048132;28;19912;-68
2022/09/08 03:49:24;;;;;;;;;;;;;;;14.24;100.00;95397.69;1050985;28;19916;-67
2022/09/08 03:49:55;;;;;;;;;;;;;;;14.23;100.00;95404.03;1048121;28;19923;-68
2022/09/08 03:50:25;;;;;;;;;;;;;;;14.25;100.00;95401.91;1048069;28;19916;-68
2022/09/08 03:50:56;;;;;;;;;;;;;;;14.27;100.00;95406.88;1039698;28;19959;-68
2022/09/08 03:51:26;;;;;;;;;;;;;;;14.28;100.00;95403.94;1040149;28;19944;-68
2022/09/08 03:51:56;;;;;;;;;;;;;;;14.23;100.00;95405.91;1039864;28;19917;-69
2022/09/08 03:52:27;;;;;;;;;;;;;;;14.24;100.00;95413.50;1035703;28;20410;-68
2022/09/08 03:52:57;;;;;;;;;;;;;;;14.21;100.00;95411.47;1035986;28;20397;-68
2022/09/08 03:53:27;;;;;;;;;;;;;;;14.23;100.00;95411.19;1044168;28;19920;-69
2022/09/08 03:54:48;;;;;;;;;;;;;;;14.20;100.00;95411.75;1044070;28;19920;-69
2022/09/08 03:55:18;;;;;;;;;;;;;;;14.21;100.00;95413.31;1043349;28;19913;-68
2022/09/08 03:55:49;;;;;;;;;;;;;;;14.20;100.00;95404.63;1039729;28;20531;-68
2022/09/08 03:56:19;;;;;;;;;;;;;;;14.20;100.00;95407.25;1039457;28;19917;-68
2022/09/08 03:56:49;;;;;;;;;;;;;;;14.21;100.00;95411.47;1035902;28;20426;-69
2022/09/08 03:57:21;;;;;;;;;;;;;;;14.22;100.00;95412.25;1039911;28;19920;-68
2022/09/08 03:57:52;;;;;;;;;;;;;;;14.24;100.00;95418.00;1039680;28;19913;-68
2022/09/08 03:58:22;;;;;;;;;;;;;;;14.24;100.00;95418.78;1041233;28;20418;-68
2022/09/08 03:58:52;;;;;;;;;;;;;;;14.24;100.00;95416.16;1043831;28;20022;-68
2022/09/08 03:59:23;;;;;;;;;;;;;;;14.24;100.00;95418.00;1041060;28;19920;-68
2022/09/08 03:59:54;;;;;;;;;;;;;;;14.23;100.00;95421.75;1039739;28;19913;-68
2022/09/08 04:00:24;;;;;;;;;;;;;;;14.22;100.00;95410.41;1031325;28;19913;-69
2022/09/08 04:00:55;;;;;;;;;;;;;;;14.24;100.00;95416.16;1031878;28;19909;-68
2022/09/08 04:01:25;;;;;;;;;;;;;;;14.24;100.00;95416.16;1041213;28;19924;-68
2022/09/08 04:01:56;;;;;;;;;;;;;;;14.25;100.00;95415.09;1048329;28;19913;-67
2022/09/08 04:02:27;;;;;;;;;;;;;;;14.26;100.00;95416.66;1047904;28;19920;-68
2022/09/08 04:02:57;;;;;;;;;;;;;;;14.28;100.00;95419.00;1050309;28;20869;-70
2022/09/08 04:03:28;;;;;;;;;;;;;;;14.26;100.00;95416.66;1052228;28;19915;-68
2022/09/08 04:03:59;;;;;;;;;;;;;;;14.28;100.00;95421.63;1046697;28;19924;-67
2022/09/08 04:04:30;;;;;;;;;;;;;;;14.28;100.00;95422.41;1051785;28;20109;-67
2022/09/08 04:05:00;;;;;;;;;;;;;;;14.29;100.00;95425.84;1043736;28;19966;-67
2022/09/08 04:05:31;;;;;;;;;;;;;;;14.30;100.00;95422.13;1039123;28;19920;-67
2022/09/08 04:06:02;;;;;;;;;;;;;;;14.29;100.00;95423.22;1039941;28;20370;-68
2022/09/08 04:06:32;;;;;;;;;;;;;;;14.27;100.00;95417.44;1039914;28;19921;-67
2022/09/08 04:07:03;;;;;;;;;;;;;;;14.27;100.00;95428.75;1043813;28;20313;-68
2022/09/08 04:07:34;;;;;;;;;;;;;;;14.28;100.00;95425.03;1040013;28;19944;-68
2022/09/08 04:08:04;;;;;;;;;;;;;;;14.26;100.00;95421.16;1038111;28;20012;-69
2022/09/08 04:08:35;;;;;;;;;;;;;;;14.22;100.00;95423.59;1038503;28;19991;-67
2022/09/08 04:09:05;;;;;;;;;;;;;;;14.23;100.00;95417.25;1043796;28;20168;-68
2022/09/08 04:09:36;;;;;;;;;;;;;;;14.23;100.00;95422.50;1043883;28;20431;-69
2022/09/08 04:10:07;;;;;;;;;;;;;;;14.23;100.00;95419.88;1044016;28;19916;-68
2022/09/08 04:10:37;;;;;;;;;;;;;;;14.24;100.00;95421.44;1048189;28;20007;-69
2022/09/08 04:11:08;;;;;;;;;;;;;;;14.22;100.00;95415.69;1051929;28;19930;-69
2022/09/08 04:11:38;;;;;;;;;;;;;;;14.24;100.00;95426.72;1056068;28;19987;-68
2022/09/08 04:12:09;;;;;;;;;;;;;;;14.25;100.00;95420.38;1056290;28;19915;-67
2022/09/08 04:12:39;;;;;;;;;;;;;;;14.25;100.00;95417.75;1047907;28;20442;-68
2022/09/08 04:13:11;;;;;;;;;;;;;;;14.25;100.00;95425.66;1047778;28;20456;-67
2022/09/08 04:13:42;;;;;;;;;;;;;;;14.27;100.00;95422.72;1052022;28;20407;-68
2022/09/08 04:14:12;;;;;;;;;;;;;;;14.28;100.00;95419.75;1048440;28;19941;-68
2022/09/08 04:14:43;;;;;;;;;;;;;;;14.24;100.00;95418.78;1052085;28;19920;-67
2022/09/08 04:15:13;;;;;;;;;;;;;;;14.24;100.00;95424.06;1051049;28;19919;-68
2022/09/08 04:15:43;;;;;;;;;;;;;;;14.25;100.00;95423.00;1051903;28;20114;-67
2022/09/08 04:16:14;;;;;;;;;;;;;;;14.24;100.00;95424.06;1047964;28;19946;-70
2022/09/08 04:16:44;;;;;;;;;;;;;;;14.26;100.00;95421.16;1046713;28;20381;-66
2022/09/08 04:17:15;;;;;;;;;;;;;;;14.27;100.00;95423.50;1042459;28;20157;-69
2022/09/08 04:17:45;;;;;;;;;;;;;;;14.28;100.00;95424.25;1043733;28;20004;-68
2022/09/08 04:18:16;;;;;;;;;;;;;;;14.27;100.00;95418.22;1047628;28;20464;-67
2022/09/08 04:18:46;;;;;;;;;;;;;;;14.25;100.00;95425.66;1043868;28;20423;-68
2022/09/08 04:19:17;;;;;;;;;;;;;;;14.23;100.00;95421.75;1043728;28;19919;-68
2022/09/08 04:19:50;;;;;;;;;;;;;;;14.24;100.00;95423.28;1043963;28;19920;-69
2022/09/08 04:20:20;;;;;;;;;;;;;;;14.25;100.00;95422.22;1040031;28;20728;-68
2022/09/08 04:20:57;;;;;;;;;;;;;;;14.22;100.00;95420.16;1042449;28;19916;-68
2022/09/08 04:21:28;;;;;;;;;;;;;;;14.24;100.00;95418.78;1043397;28;19913;-68
2022/09/08 04:21:58;;;;;;;;;;;;;;;14.22;100.00;95407.75;1048119;28;19916;-68
2022/09/08 04:22:28;;;;;;;;;;;;;;;14.23;100.00;95417.25;1047777;28;19917;-68
2022/09/08 04:22:59;;;;;;;;;;;;;;;14.25;100.00;95414.28;1046599;28;19944;-67
2022/09/08 04:23:29;;;;;;;;;;;;;;;14.24;100.00;95408.25;1050067;28;19915;-67
2022/09/08 04:23:59;;;;;;;;;;;;;;;14.24;100.00;95418.00;1044035;28;19909;-66
2022/09/08 04:24:31;;;;;;;;;;;;;;;14.26;100.00;95421.16;1048790;28;20385;-68
2022/09/08 04:25:02;;;;;;;;;;;;;;;14.22;100.00;95423.59;1051999;28;20066;-67
2022/09/08 04:25:32;;;;;;;;;;;;;;;14.21;100.00;95419.38;1049132;28;20514;-68
2022/09/08 04:26:06;;;;;;;;;;;;;;;14.23;100.00;95424.38;1051146;28;19919;-69
2022/09/08 04:26:37;;;;;;;;;;;;;;;14.24;100.00;95423.28;1050506;28;20365;-69
2022/09/08 04:27:07;;;;;;;;;;;;;;;14.23;100.00;95416.47;1044875;28;19916;-68
2022/09/08 04:27:38;;;;;;;;;;;;;;;14.22;100.00;95418.31;1043287;28;19917;-68
2022/09/08 04:28:08;;;;;;;;;;;;;;;14.20;100.00;95420.47;1043418;28;19975;-67
2022/09/08 04:28:39;;;;;;;;;;;;;;;14.21;100.00;95416.75;1043777;28;19912;-68
2022/09/08 04:29:09;;;;;;;;;;;;;;;14.23;100.00;95424.38;1041238;28;19920;-67
2022/09/08 04:29:40;;;;;;;;;;;;;;;14.22;100.00;95420.97;1039437;28;20278;-66
2022/09/08 04:30:10;;;;;;;;;;;;;;;14.22;100.00;95420.97;1034258;28;19971;-68
2022/09/08 04:30:41;;;;;;;;;;;;;;;14.21;100.00;95413.31;1039768;28;19963;-68
2022/09/08 04:31:11;;;;;;;;;;;;;;;14.19;100.00;95421.53;1050531;28;19920;-68
2022/09/08 04:31:42;;;;;;;;;;;;;;;14.20;100.00;95417.81;1046384;28;19951;-67
2022/09/08 04:32:12;;;;;;;;;;;;;;;14.22;100.00;95423.59;1045876;28;19913;-68
2022/09/08 04:32:43;;;;;;;;;;;;;;;14.22;100.00;95426.25;1046936;28;19945;-67
2022/09/08 04:33:13;;;;;;;;;;;;;;;14.21;100.00;95426.50;1047731;28;20305;-66
2022/09/08 04:33:43;;;;;;;;;;;;;;;14.19;100.00;95421.53;1048518;28;20376;-67
2022/09/08 04:34:14;;;;;;;;;;;;;;;14.22;100.00;95426.25;1053342;28;20032;-67
2022/09/08 04:34:44;;;;;;;;;;;;;;;14.20;100.00;95423.09;1054574;28;19945;-67
2022/09/08 04:35:14;;;;;;;;;;;;;;;14.24;100.00;95426.72;1054027;28;19912;-69
2022/09/08 04:35:45;;;;;;;;;;;;;;;14.22;100.00;95426.25;1049753;28;19908;-69
2022/09/08 04:36:16;;;;;;;;;;;;;;;14.22;100.00;95428.88;1046327;28;19916;-67
2022/09/08 04:36:46;;;;;;;;;;;;;;;14.22;100.00;95426.25;1043440;28;20182;-67
2022/09/08 04:37:17;;;;;;;;;;;;;;;14.23;100.00;95429.66;1042514;28;19963;-68
2022/09/08 04:37:47;;;;;;;;;;;;;;;14.22;100.00;95423.59;1043405;28;19920;-67
2022/09/08 04:38:17;;;;;;;;;;;;;;;14.24;100.00;95424.06;1040199;28;20383;-68
2022/09/08 04:38:48;;;;;;;;;;;;;;;14.24;100.00;95428.56;1050405;28;20198;-66
2022/09/08 04:39:20;;;;;;;;;;;;;;;14.22;100.00;95420.97;1038843;28;19940;-67
2022/09/08 04:39:50;;;;;;;;;;;;;;;14.23;100.00;95424.38;1039225;28;20305;-68
2022/09/08 04:40:20;;;;;;;;;;;;;;;14.23;100.00;95429.66;1036129;28;19948;-69
2022/09/08 04:40:51;;;;;;;;;;;;;;;14.23;100.00;95422.50;1041318;28;20019;-67
2022/09/08 04:41:21;;;;;;;;;;;;;;;14.25;100.00;95424.84;1047938;28;19971;-67
2022/09/08 04:41:51;;;;;;;;;;;;;;;14.25;100.00;95425.66;1047794;28;19908;-67
2022/09/08 04:42:23;;;;;;;;;;;;;;;14.24;100.00;95418.78;1047838;28;20373;-67
2022/09/08 04:42:53;;;;;;;;;;;;;;;14.23;100.00;95427.78;1048230;28;20584;-69
2022/09/08 04:43:23;;;;;;;;;;;;;;;14.24;100.00;95420.66;1052366;28;19942;-68
2022/09/08 04:43:54;;;;;;;;;;;;;;;14.23;100.00;95417.25;1054389;28;20106;-67
2022/09/08 04:44:25;;;;;;;;;;;;;;;14.24;100.00;95421.44;1052005;28;19934;-67
2022/09/08 04:44:55;;;;;;;;;;;;;;;14.23;100.00;95430.44;1047738;28;20361;-68
2022/09/08 04:45:25;;;;;;;;;;;;;;;14.24;100.00;95426.72;1043785;28;19924;-68
2022/09/08 04:45:59;;;;;;;;;;;;;;;14.22;100.00;95431.53;1046295;28;19919;-67
2022/09/08 04:46:30;;;;;;;;;;;;;;;14.23;100.00;95430.44;1037889;28;19943;-67
2022/09/08 04:47:00;;;;;;;;;;;;;;;14.23;100.00;95442.84;1040045;28;19919;-68
2022/09/08 04:47:30;;;;;;;;;;;;;;;14.25;100.00;95444.13;1042817;28;19962;-67
2022/09/08 04:48:01;;;;;;;;;;;;;;;14.26;100.00;95444.91;1043694;28;19924;-66
2022/09/08 04:48:31;;;;;;;;;;;;;;;14.24;100.00;95450.47;1047814;28;19916;-67
2022/09/08 04:49:01;;;;;;;;;;;;;;;14.25;100.00;95449.41;1049109;28;19916;-68
2022/09/08 04:49:32;;;;;;;;;;;;;;;14.26;100.00;95447.53;1051712;28;19942;-68
2022/09/08 04:50:02;;;;;;;;;;;;;;;14.25;100.00;95444.13;1051858;28;19915;-68
2022/09/08 04:50:32;;;;;;;;;;;;;;;14.26;100.00;95440.41;1051400;28;19912;-68
2022/09/08 04:51:03;;;;;;;;;;;;;;;14.27;100.00;95439.31;1051512;28;19923;-68
2022/09/08 04:51:33;;;;;;;;;;;;;;;14.26;100.00;95437.75;1047569;28;19931;-67
2022/09/08 04:52:03;;;;;;;;;;;;;;;14.27;100.00;95444.59;1043629;28;20472;-68
2022/09/08 04:52:34;;;;;;;;;;;;;;;14.28;100.00;95440.88;1042173;28;19959;-68
2022/09/08 04:53:04;;;;;;;;;;;;;;;14.28;100.00;95445.38;1043618;28;20023;-67
2022/09/08 04:53:36;;;;;;;;;;;;;;;14.29;100.00;95441.69;1043669;28;19924;-67
2022/09/08 04:54:06;;;;;;;;;;;;;;;14.30;100.00;95453.78;1046898;28;19995;-67
2022/09/08 04:54:36;;;;;;;;;;;;;;;14.29;100.00;95449.59;1047672;28;20438;-67
2022/09/08 04:55:07;;;;;;;;;;;;;;;14.28;100.00;95456.72;1043385;28;19909;-67
2022/09/08 04:55:38;;;;;;;;;;;;;;;14.28;100.00;95451.44;1049159;28;19970;-68
2022/09/08 04:56:08;;;;;;;;;;;;;;;14.29;100.00;95454.88;1047355;28;19909;-69
2022/09/08 04:56:39;;;;;;;;;;;;;;;14.28;100.00;95448.78;1047243;28;20560;-66
2022/09/08 04:57:09;;;;;;;;;;;;;;;14.28;100.00;95456.72;1043364;28;19912;-68
2022/09/08 04:57:40;;;;;;;;;;;;;;;14.29;100.00;95452.25;1046468;28;19908;-66
2022/09/08 04:58:10;;;;;;;;;;;;;;;14.29;100.00;95454.88;1047712;28;20447;-66
2022/09/08 04:58:41;;;;;;;;;;;;;;;14.30;100.00;95453.78;1051732;28;19919;-67
2022/09/08 04:59:11;;;;;;;;;;;;;;;14.27;100.00;95455.16;1054775;28;19919;-67
2022/09/08 04:59:42;;;;;;;;;;;;;;;14.27;100.00;95455.16;1052041;28;19919;-67
2022/09/08 05:00:13;;;;;;;;;;;;;;;14.29;100.00;95457.53;1051659;28;19951;-66
2022/09/08 05:00:43;;;;;;;;;;;;;;;14.29;100.00;95453.03;1053234;28;20481;-66
2022/09/08 05:01:18;;;;;;;;;;;;;;;14.30;100.00;95453.78;1053522;28;19985;-67
2022/09/08 05:01:49;;;;;;;;;;;;;;;14.31;100.00;95461.41;1056449;28;20057;-64
2022/09/08 05:02:19;;;;;;;;;;;;;;;14.32;100.00;95459.56;1048185;28;19913;-66
2022/09/08 05:02:50;;;;;;;;;;;;;;;14.29;100.00;95458.31;1050081;28;19938;-67
2022/09/08 05:03:20;;;;;;;;;;;;;;;14.30;100.00;95453.78;1046570;28;20151;-67
2022/09/08 05:03:51;;;;;;;;;;;;;;;14.29;100.00;95452.25;1042623;28;20353;-67
2022/09/08 05:04:21;;;;;;;;;;;;;;;14.29;100.00;95463.56;1047354;28;19994;-67
2022/09/08 05:04:52;;;;;;;;;;;;;;;14.28;100.00;95456.72;1043372;28;19917;-67
2022/09/08 05:05:22;;;;;;;;;;;;;;;14.31;100.00;95455.34;1042611;28;19920;-68
2022/09/08 05:05:53;;;;;;;;;;;;;;;14.33;100.00;95463.78;1041387;28;19920;-67
2022/09/08 05:06:23;;;;;;;;;;;;;;;14.29;100.00;95452.25;1047394;28;19916;-68
2022/09/08 05:06:53;;;;;;;;;;;;;;;14.31;100.00;95458.78;1051618;28;19924;-67
2022/09/08 05:07:24;;;;;;;;;;;;;;;14.28;100.00;95455.94;1056114;28;19911;-68
2022/09/08 05:07:54;;;;;;;;;;;;;;;14.29;100.00;95450.38;1053644;28;20428;-66
2022/09/08 05:08:25;;;;;;;;;;;;;;;14.30;100.00;95454.56;1047549;28;20020;-68
2022/09/08 05:08:56;;;;;;;;;;;;;;;14.30;100.00;95454.56;1044239;28;19912;-67
2022/09/08 05:09:26;;;;;;;;;;;;;;;14.30;100.00;95454.56;1046509;28;20364;-67
2022/09/08 05:09:57;;;;;;;;;;;;;;;14.31;100.00;95458.78;1047551;28;19908;-67
2022/09/08 05:10:27;;;;;;;;;;;;;;;14.30;100.00;95454.56;1047715;28;19913;-67
2022/09/08 05:10:58;;;;;;;;;;;;;;;14.29;100.00;95458.31;1053640;28;20289;-70